Time;durP1;ratioP1;P1;durP2;ratioP2;P2;SDS_P1;SDS_P2;PMS_P1;PMS_P2;Temp;Humidity;BMP_temperature;BMP_pressure;BME280_temperature;BME280_humidity;BME280_pressure;Samples;Min_cycle;Max_cycle;Signal;HPM_P1;HPM_P2
2023/04/21 00:00:18;;;;;;;8.80;7.40;;;;;;;;;;107911;285;27962;-29
2023/04/21 00:03:15;;;;;;;7.50;6.50;;;;;;;;;;107876;285;27476;-29
2023/04/21 00:05:51;;;;;;;8.50;6.70;;;;;;;;;;107892;285;28480;-29
2023/04/21 00:08:27;;;;;;;7.60;6.80;;;;;;;;;;107891;285;28673;-29
2023/04/21 00:11:06;;;;;;;7.30;6.40;;;;;;;;;;107908;282;28071;-29
2023/04/21 00:13:42;;;;;;;7.60;6.60;;;;;;;;;;107896;285;27186;-29
2023/04/21 00:16:18;;;;;;;7.50;6.60;;;;;;;;;;107888;285;28135;-29
2023/04/21 00:18:55;;;;;;;7.90;6.90;;;;;;;;;;107565;285;175686;-29
2023/04/21 00:21:31;;;;;;;7.60;6.60;;;;;;;;;;107889;282;27907;-29
2023/04/21 00:24:06;;;;;;;7.40;6.50;;;;;;;;;;107882;285;27203;-29
2023/04/21 00:26:40;;;;;;;7.40;6.60;;;;;;;;;;107910;285;30369;-29
2023/04/21 00:29:16;;;;;;;7.50;6.60;;;;;;;;;;107860;285;28646;-29
2023/04/21 00:31:51;;;;;;;8.10;6.50;;;;;;;;;;107939;282;28048;-29
2023/04/21 00:34:28;;;;;;;7.50;6.50;;;;;;;;;;107914;282;27199;-30
2023/04/21 00:37:04;;;;;;;7.70;6.40;;;;;;;;;;107878;285;28138;-30
2023/04/21 00:39:41;;;;;;;7.60;6.20;;;;;;;;;;107915;285;28637;-30
2023/04/21 00:42:18;;;;;;;7.50;6.30;;;;;;;;;;107832;286;27920;-30
2023/04/21 00:44:54;;;;;;;7.40;6.60;;;;;;;;;;107923;283;27377;-30
2023/04/21 00:47:29;;;;;;;7.60;6.60;;;;;;;;;;107865;285;27855;-30
2023/04/21 00:50:06;;;;;;;7.40;6.60;;;;;;;;;;107892;285;28691;-30
2023/04/21 00:52:45;;;;;;;7.70;6.50;;;;;;;;;;107816;285;175685;-30
2023/04/21 00:55:20;;;;;;;7.30;6.40;;;;;;;;;;107917;290;27324;-30
2023/04/21 00:57:58;;;;;;;7.20;6.20;;;;;;;;;;107875;283;28100;-30
2023/04/21 01:00:36;;;;;;;7.60;6.50;;;;;;;;;;107899;277;28682;-30
2023/04/21 01:03:11;;;;;;;7.20;6.50;;;;;;;;;;107911;289;27911;-30
2023/04/21 01:05:47;;;;;;;7.90;6.30;;;;;;;;;;107893;285;26934;-30
2023/04/21 01:08:23;;;;;;;8.00;6.10;;;;;;;;;;107865;282;28102;-30
2023/04/21 01:11:00;;;;;;;7.20;6.50;;;;;;;;;;107906;285;28764;-30
2023/04/21 01:13:37;;;;;;;7.30;6.30;;;;;;;;;;107906;285;27899;-30
2023/04/21 01:16:20;;;;;;;7.80;6.70;;;;;;;;;;107909;285;26944;-30
2023/04/21 01:18:56;;;;;;;7.50;6.70;;;;;;;;;;107874;283;28149;-30
2023/04/21 01:21:40;;;;;;;7.00;6.30;;;;;;;;;;107894;286;28640;-30
2023/04/21 01:24:15;;;;;;;7.50;6.50;;;;;;;;;;107910;285;27884;-30
2023/04/21 01:26:51;;;;;;;7.10;6.00;;;;;;;;;;107888;285;27210;-30
2023/04/21 01:29:27;;;;;;;7.30;6.50;;;;;;;;;;107906;283;28102;-30
2023/04/21 01:32:06;;;;;;;7.70;6.40;;;;;;;;;;107898;285;28650;-30
2023/04/21 01:34:41;;;;;;;7.00;6.30;;;;;;;;;;107924;285;27793;-30
2023/04/21 01:37:23;;;;;;;6.80;5.90;;;;;;;;;;107921;277;27215;-30
2023/04/21 01:40:03;;;;;;;7.40;6.30;;;;;;;;;;107446;285;540109;-30
2023/04/21 01:42:41;;;;;;;7.40;6.30;;;;;;;;;;107920;285;28408;-30
2023/04/21 01:45:15;;;;;;;7.40;6.60;;;;;;;;;;107915;285;28026;-30
2023/04/21 01:47:50;;;;;;;7.30;6.20;;;;;;;;;;107911;285;27320;-30
2023/04/21 01:50:27;;;;;;;7.00;6.10;;;;;;;;;;107847;282;28244;-30
2023/04/21 01:53:02;;;;;;;8.20;6.60;;;;;;;;;;107911;283;28413;-30
2023/04/21 01:55:40;;;;;;;7.20;6.10;;;;;;;;;;107908;285;28026;-30
2023/04/21 01:58:14;;;;;;;7.40;6.30;;;;;;;;;;107909;281;27290;-30
2023/04/21 02:00:50;;;;;;;7.10;6.30;;;;;;;;;;107884;285;28099;-30
2023/04/21 02:03:25;;;;;;;7.40;6.30;;;;;;;;;;107891;285;29894;-30
2023/04/21 02:06:02;;;;;;;6.80;5.90;;;;;;;;;;107915;290;28033;-30
2023/04/21 02:08:40;;;;;;;7.60;6.30;;;;;;;;;;107914;285;27969;-30
2023/04/21 02:11:14;;;;;;;7.80;6.30;;;;;;;;;;107841;285;28233;-30
2023/04/21 02:13:49;;;;;;;6.90;6.10;;;;;;;;;;107901;285;28775;-30
2023/04/21 02:16:25;;;;;;;7.20;6.20;;;;;;;;;;107892;285;27946;-30
2023/04/21 02:19:02;;;;;;;6.80;6.00;;;;;;;;;;107927;284;27288;-30
2023/04/21 02:21:37;;;;;;;7.60;6.30;;;;;;;;;;107897;277;175733;-30
2023/04/21 02:24:12;;;;;;;6.60;5.90;;;;;;;;;;107872;285;28789;-30
2023/04/21 02:26:47;;;;;;;7.60;6.20;;;;;;;;;;107911;285;28034;-30
2023/04/21 02:29:22;;;;;;;6.80;5.80;;;;;;;;;;107900;285;27212;-30
2023/04/21 02:31:59;;;;;;;6.80;5.80;;;;;;;;;;107881;285;34048;-30
2023/04/21 02:34:52;;;;;;;7.10;6.30;;;;;;;;;;107901;285;28643;-30
2023/04/21 02:37:31;;;;;;;7.70;6.40;;;;;;;;;;107899;285;28910;-30
2023/04/21 02:40:10;;;;;;;7.00;6.10;;;;;;;;;;107884;285;27303;-30
2023/04/21 02:42:48;;;;;;;6.90;6.10;;;;;;;;;;107897;284;28393;-30
2023/04/21 02:45:23;;;;;;;6.70;5.80;;;;;;;;;;107905;285;28771;-30
2023/04/21 02:47:59;;;;;;;6.80;5.70;;;;;;;;;;107881;285;28090;-30
2023/04/21 02:50:38;;;;;;;7.00;5.80;;;;;;;;;;107870;285;27304;-30
2023/04/21 02:53:16;;;;;;;6.80;5.70;;;;;;;;;;107902;285;28356;-30
2023/04/21 02:55:54;;;;;;;6.70;5.70;;;;;;;;;;107911;285;31323;-30
2023/04/21 02:58:31;;;;;;;6.40;5.70;;;;;;;;;;107876;285;27944;-30
2023/04/21 03:01:06;;;;;;;6.60;5.80;;;;;;;;;;107870;285;27315;-30
2023/04/21 03:03:40;;;;;;;7.00;6.00;;;;;;;;;;107912;285;28230;-30
2023/04/21 03:06:14;;;;;;;7.50;5.80;;;;;;;;;;107910;285;28766;-30
2023/04/21 03:08:50;;;;;;;6.70;5.70;;;;;;;;;;107912;285;27641;-30
2023/04/21 03:11:26;;;;;;;6.80;5.50;;;;;;;;;;107875;277;27336;-30
2023/04/21 03:14:02;;;;;;;6.60;5.80;;;;;;;;;;107888;285;28119;-30
2023/04/21 03:16:36;;;;;;;6.30;5.60;;;;;;;;;;107903;285;28670;-30
2023/04/21 03:19:13;;;;;;;6.70;5.40;;;;;;;;;;107881;285;27876;-30
2023/04/21 03:21:47;;;;;;;6.20;5.40;;;;;;;;;;107858;277;27354;-30
2023/04/21 03:24:23;;;;;;;6.90;5.70;;;;;;;;;;107905;283;28166;-30
2023/04/21 03:26:59;;;;;;;6.70;5.50;;;;;;;;;;107909;277;29824;-30
2023/04/21 03:29:38;;;;;;;6.60;5.70;;;;;;;;;;107880;285;28417;-30
2023/04/21 03:32:15;;;;;;;7.10;5.80;;;;;;;;;;107827;285;26272;-29
2023/04/21 03:34:52;;;;;;;6.80;5.30;;;;;;;;;;107866;285;29359;-29
2023/04/21 03:37:28;;;;;;;6.70;5.60;;;;;;;;;;107911;285;28713;-29
2023/04/21 03:40:04;;;;;;;6.50;5.60;;;;;;;;;;107902;285;28254;-29
2023/04/21 03:42:38;;;;;;;7.10;6.00;;;;;;;;;;107881;285;27195;-29
2023/04/21 03:45:13;;;;;;;6.90;5.70;;;;;;;;;;107899;285;28344;-29
2023/04/21 03:47:48;;;;;;;6.70;5.60;;;;;;;;;;107933;285;28876;-29
2023/04/21 03:50:25;;;;;;;6.40;5.40;;;;;;;;;;107910;284;30133;-29
2023/04/21 03:53:00;;;;;;;6.60;5.70;;;;;;;;;;107875;285;27251;-29
2023/04/21 03:55:34;;;;;;;6.10;5.40;;;;;;;;;;107934;285;28183;-29
2023/04/21 03:58:09;;;;;;;6.50;5.40;;;;;;;;;;107893;285;28405;-29
2023/04/21 04:00:45;;;;;;;7.00;5.40;;;;;;;;;;107913;284;27853;-29
2023/04/21 04:03:20;;;;;;;7.00;5.70;;;;;;;;;;107885;285;27035;-29
2023/04/21 04:06:00;;;;;;;7.50;5.40;;;;;;;;;;107910;285;28620;-29
2023/04/21 04:08:37;;;;;;;6.80;5.50;;;;;;;;;;107919;285;28760;-29
2023/04/21 04:11:12;;;;;;;6.80;5.40;;;;;;;;;;107914;282;27986;-29
2023/04/21 04:13:47;;;;;;;6.40;5.20;;;;;;;;;;107836;285;28005;-29
2023/04/21 04:16:21;;;;;;;7.20;5.50;;;;;;;;;;107924;285;28323;-29
2023/04/21 04:18:58;;;;;;;7.40;5.40;;;;;;;;;;107894;282;28802;-29
2023/04/21 04:21:34;;;;;;;6.60;5.50;;;;;;;;;;107887;285;27957;-29
2023/04/21 04:24:09;;;;;;;7.10;5.60;;;;;;;;;;107837;285;27261;-29
2023/04/21 04:26:46;;;;;;;5.90;5.10;;;;;;;;;;107925;282;28207;-29
2023/04/21 04:29:22;;;;;;;6.10;5.10;;;;;;;;;;107811;288;175691;-29
2023/04/21 04:32:00;;;;;;;6.30;5.10;;;;;;;;;;107893;285;27997;-29
2023/04/21 04:34:38;;;;;;;6.80;5.00;;;;;;;;;;107919;282;33832;-29
2023/04/21 04:37:15;;;;;;;6.60;5.20;;;;;;;;;;107906;283;28392;-29
2023/04/21 04:39:52;;;;;;;6.40;4.90;;;;;;;;;;107744;285;175672;-29
2023/04/21 04:42:31;;;;;;;7.30;5.20;;;;;;;;;;107850;285;28604;-29
2023/04/21 04:45:08;;;;;;;6.40;5.30;;;;;;;;;;107896;285;27192;-29
2023/04/21 04:47:44;;;;;;;6.50;5.00;;;;;;;;;;107928;283;28263;-30
2023/04/21 04:50:20;;;;;;;6.50;5.20;;;;;;;;;;107929;283;28848;-30
2023/04/21 04:52:56;;;;;;;6.80;5.30;;;;;;;;;;107875;283;27920;-30
2023/04/21 04:55:31;;;;;;;6.80;5.30;;;;;;;;;;107893;283;27318;-30
2023/04/21 04:58:07;;;;;;;6.10;4.80;;;;;;;;;;107905;285;29285;-30
2023/04/21 05:00:46;;;;;;;6.40;5.10;;;;;;;;;;107924;289;28600;-30
2023/04/21 05:03:20;;;;;;;6.80;5.30;;;;;;;;;;107853;284;27878;-30
2023/04/21 05:05:57;;;;;;;6.70;5.00;;;;;;;;;;107898;285;27387;-30
2023/04/21 05:08:33;;;;;;;6.20;4.80;;;;;;;;;;107929;284;28258;-30
2023/04/21 05:11:09;;;;;;;6.70;4.90;;;;;;;;;;107912;285;28765;-30
2023/04/21 05:13:45;;;;;;;7.70;5.20;;;;;;;;;;107889;285;28004;-30
2023/04/21 05:16:21;;;;;;;6.40;5.20;;;;;;;;;;107900;283;28530;-30
2023/04/21 05:18:57;;;;;;;6.70;4.70;;;;;;;;;;107931;277;28375;-30
2023/04/21 05:21:33;;;;;;;6.50;4.80;;;;;;;;;;107920;283;28641;-30
2023/04/21 05:24:07;;;;;;;6.50;4.80;;;;;;;;;;107868;285;27637;-30
2023/04/21 05:26:43;;;;;;;6.10;4.90;;;;;;;;;;107904;285;26934;-30
2023/04/21 05:29:19;;;;;;;6.20;4.90;;;;;;;;;;107887;285;28118;-30
2023/04/21 05:31:56;;;;;;;7.10;5.30;;;;;;;;;;107903;285;28637;-30
2023/04/21 05:34:34;;;;;;;6.40;4.50;;;;;;;;;;107838;285;28041;-30
2023/04/21 05:37:09;;;;;;;6.20;4.80;;;;;;;;;;107877;285;27326;-30
2023/04/21 05:39:46;;;;;;;6.20;4.70;;;;;;;;;;107921;285;28535;-30
2023/04/21 05:42:22;;;;;;;5.50;4.50;;;;;;;;;;107938;283;28889;-30
2023/04/21 05:44:57;;;;;;;6.70;4.60;;;;;;;;;;107895;285;28001;-30
2023/04/21 05:47:32;;;;;;;5.80;4.70;;;;;;;;;;107852;281;28523;-30
2023/04/21 05:50:10;;;;;;;6.00;4.60;;;;;;;;;;107918;285;29365;-30
2023/04/21 05:52:45;;;;;;;6.80;4.70;;;;;;;;;;107939;285;29830;-30
2023/04/21 05:55:19;;;;;;;5.80;4.50;;;;;;;;;;107902;285;28214;-30
2023/04/21 05:57:52;;;;;;;6.00;4.50;;;;;;;;;;107824;285;175704;-30
2023/04/21 06:00:27;;;;;;;6.50;4.80;;;;;;;;;;107895;285;28346;-31
2023/04/21 06:03:00;;;;;;;5.60;4.50;;;;;;;;;;107901;285;28872;-31
2023/04/21 06:05:34;;;;;;;7.70;5.20;;;;;;;;;;107841;283;28097;-31
2023/04/21 06:08:10;;;;;;;7.10;5.10;;;;;;;;;;107893;285;27191;-31
2023/04/21 06:10:47;;;;;;;6.30;5.10;;;;;;;;;;107884;285;28104;-31
2023/04/21 06:13:23;;;;;;;6.20;4.90;;;;;;;;;;107896;285;28626;-31
2023/04/21 06:15:59;;;;;;;7.90;5.20;;;;;;;;;;107884;285;27910;-31
2023/04/21 06:18:36;;;;;;;7.30;5.50;;;;;;;;;;107902;283;28273;-31
2023/04/21 06:21:11;;;;;;;7.40;5.40;;;;;;;;;;107888;285;28331;-31
2023/04/21 06:23:48;;;;;;;8.50;5.40;;;;;;;;;;107898;283;28800;-31
2023/04/21 06:26:25;;;;;;;9.00;6.00;;;;;;;;;;107862;285;28057;-31
2023/04/21 06:28:59;;;;;;;9.50;5.80;;;;;;;;;;107906;283;27625;-31
2023/04/21 06:31:33;;;;;;;10.40;6.20;;;;;;;;;;107933;285;28148;-31
2023/04/21 06:34:07;;;;;;;8.60;5.60;;;;;;;;;;107895;285;28757;-31
2023/04/21 06:36:43;;;;;;;8.70;6.00;;;;;;;;;;107861;283;27911;-31
2023/04/21 06:39:19;;;;;;;8.60;5.50;;;;;;;;;;107900;285;27644;-31
2023/04/21 06:41:54;;;;;;;8.20;6.00;;;;;;;;;;107901;285;28077;-31
2023/04/21 06:44:31;;;;;;;8.50;5.90;;;;;;;;;;107897;283;29132;-31
2023/04/21 06:47:08;;;;;;;8.40;5.60;;;;;;;;;;107884;285;33814;-31
2023/04/21 06:49:43;;;;;;;8.90;5.30;;;;;;;;;;107902;285;27266;-31
2023/04/21 06:52:21;;;;;;;7.20;5.20;;;;;;;;;;107924;285;29254;-31
2023/04/21 06:54:56;;;;;;;7.50;5.20;;;;;;;;;;107916;281;28696;-31
2023/04/21 06:57:32;;;;;;;7.80;5.70;;;;;;;;;;107903;285;34568;-31
2023/04/21 07:00:09;;;;;;;9.20;5.80;;;;;;;;;;107921;285;27327;-31
2023/04/21 07:02:46;;;;;;;9.00;5.60;;;;;;;;;;107910;285;28214;-31
2023/04/21 07:05:21;;;;;;;8.30;5.40;;;;;;;;;;107899;282;28830;-31
2023/04/21 07:07:59;;;;;;;8.60;5.70;;;;;;;;;;107919;285;27901;-31
2023/04/21 07:10:35;;;;;;;8.00;5.50;;;;;;;;;;107708;284;27269;-31
2023/04/21 07:13:12;;;;;;;8.50;5.50;;;;;;;;;;107884;285;28111;-31
2023/04/21 07:15:47;;;;;;;8.50;5.50;;;;;;;;;;107894;284;28734;-31
2023/04/21 07:18:25;;;;;;;7.90;5.10;;;;;;;;;;107911;285;27648;-31
2023/04/21 07:21:02;;;;;;;8.10;5.50;;;;;;;;;;107853;285;27355;-31
2023/04/21 07:23:38;;;;;;;7.80;5.40;;;;;;;;;;107859;285;28415;-30
2023/04/21 07:26:16;;;;;;;8.20;5.50;;;;;;;;;;107845;282;28910;-30
2023/04/21 07:28:51;;;;;;;6.60;4.90;;;;;;;;;;107852;285;28106;-30
2023/04/21 07:31:25;;;;;;;7.60;5.50;;;;;;;;;;107899;286;27438;-30
2023/04/21 07:34:01;;;;;;;7.50;5.50;;;;;;;;;;107754;283;175656;-32
2023/04/21 07:36:36;;;;;;;7.40;5.30;;;;;;;;;;107888;283;28856;-32
2023/04/21 07:39:12;;;;;;;7.30;5.30;;;;;;;;;;107859;285;28003;-32
2023/04/21 07:41:47;;;;;;;7.70;5.30;;;;;;;;;;107910;282;27635;-32
2023/04/21 07:44:25;;;;;;;7.30;5.10;;;;;;;;;;107753;285;175608;-32
2023/04/21 07:47:04;;;;;;;6.80;5.10;;;;;;;;;;107795;285;29330;-32
2023/04/21 07:49:40;;;;;;;7.30;4.70;;;;;;;;;;107871;285;28220;-32
2023/04/21 07:52:16;;;;;;;7.50;4.90;;;;;;;;;;107854;285;27460;-32
2023/04/21 07:54:56;;;;;;;7.60;4.90;;;;;;;;;;107895;285;28295;-32
2023/04/21 07:57:37;;;;;;;8.70;5.10;;;;;;;;;;107840;283;28830;-31
2023/04/21 08:00:14;;;;;;;7.10;4.90;;;;;;;;;;107903;283;28091;-31
2023/04/21 08:02:51;;;;;;;6.80;4.70;;;;;;;;;;107880;285;27405;-31
2023/04/21 08:05:28;;;;;;;7.10;5.00;;;;;;;;;;107856;285;28352;-31
2023/04/21 08:08:08;;;;;;;6.90;4.90;;;;;;;;;;107846;285;28867;-31
2023/04/21 08:10:45;;;;;;;6.70;4.80;;;;;;;;;;107895;285;28103;-31
2023/04/21 08:13:24;;;;;;;7.50;5.10;;;;;;;;;;107897;282;27405;-31
2023/04/21 08:16:01;;;;;;;8.40;4.60;;;;;;;;;;107874;282;28442;-32
2023/04/21 08:18:35;;;;;;;7.70;5.00;;;;;;;;;;107703;285;175592;-31
2023/04/21 08:21:10;;;;;;;7.20;4.90;;;;;;;;;;107891;283;27901;-31
2023/04/21 08:23:43;;;;;;;7.40;4.80;;;;;;;;;;107904;285;27437;-31
2023/04/21 08:26:20;;;;;;;6.70;4.80;;;;;;;;;;107880;281;28315;-31
2023/04/21 08:28:58;;;;;;;7.70;4.50;;;;;;;;;;107828;285;28824;-31
2023/04/21 08:31:35;;;;;;;6.90;4.50;;;;;;;;;;107858;286;28096;-31
2023/04/21 08:34:12;;;;;;;6.50;4.40;;;;;;;;;;107875;283;27382;-31
2023/04/21 08:36:47;;;;;;;6.50;4.50;;;;;;;;;;107897;283;29462;-31
2023/04/21 08:39:25;;;;;;;6.90;4.50;;;;;;;;;;107854;285;34505;-31
2023/04/21 08:42:05;;;;;;;7.20;4.10;;;;;;;;;;107922;285;28092;-31
2023/04/21 08:44:43;;;;;;;6.70;4.40;;;;;;;;;;107849;285;27352;-31
2023/04/21 08:47:23;;;;;;;6.40;4.10;;;;;;;;;;107846;285;28086;-31
2023/04/21 08:50:02;;;;;;;6.40;4.00;;;;;;;;;;107865;285;35131;-31
2023/04/21 08:52:38;;;;;;;6.40;4.10;;;;;;;;;;107875;283;28242;-31
2023/04/21 08:55:12;;;;;;;6.00;3.80;;;;;;;;;;107887;285;27392;-32
2023/04/21 08:57:47;;;;;;;6.10;3.90;;;;;;;;;;107870;277;29563;-32
2023/04/21 09:00:24;;;;;;;7.10;4.10;;;;;;;;;;107899;285;28818;-32
2023/04/21 09:03:01;;;;;;;5.60;4.00;;;;;;;;;;107889;285;28129;-32
2023/04/21 09:05:41;;;;;;;6.10;3.80;;;;;;;;;;107895;284;27494;-32
2023/04/21 09:08:24;;;;;;;6.50;3.90;;;;;;;;;;107843;284;28036;-32
2023/04/21 09:11:06;;;;;;;5.90;3.70;;;;;;;;;;107903;285;29281;-32
2023/04/21 09:13:42;;;;;;;5.70;3.70;;;;;;;;;;107905;283;29382;-31
2023/04/21 09:16:21;;;;;;;5.80;3.50;;;;;;;;;;107875;285;28508;-32
2023/04/21 09:18:58;;;;;;;6.30;3.90;;;;;;;;;;107850;285;28421;-32
2023/04/21 09:21:34;;;;;;;5.40;3.70;;;;;;;;;;107888;282;29099;-32
2023/04/21 09:24:11;;;;;;;5.10;3.50;;;;;;;;;;107760;285;175557;-32
2023/04/21 09:26:49;;;;;;;6.70;3.40;;;;;;;;;;107916;285;27604;-31
2023/04/21 09:29:28;;;;;;;6.20;3.60;;;;;;;;;;107832;277;30529;-32
2023/04/21 09:32:04;;;;;;;6.80;3.70;;;;;;;;;;107899;285;29279;-32
2023/04/21 09:34:44;;;;;;;6.50;4.10;;;;;;;;;;107899;283;28100;-31
2023/04/21 09:37:23;;;;;;;5.30;3.40;;;;;;;;;;107894;283;27496;-32
2023/04/21 09:40:00;;;;;;;5.70;3.70;;;;;;;;;;107482;285;435544;-32
2023/04/21 09:42:39;;;;;;;5.10;3.50;;;;;;;;;;107880;283;28836;-32
2023/04/21 09:45:17;;;;;;;6.00;3.50;;;;;;;;;;107858;283;28554;-31
2023/04/21 09:47:56;;;;;;;7.20;3.50;;;;;;;;;;107899;285;27324;-32
2023/04/21 09:50:33;;;;;;;5.70;3.60;;;;;;;;;;107868;283;28367;-32
2023/04/21 09:53:30;;;;;;;5.20;3.20;;;;;;;;;;107886;277;28824;-32
2023/04/21 09:56:06;;;;;;;5.40;3.20;;;;;;;;;;107954;286;28128;-32
2023/04/21 09:58:53;;;;;;;5.20;3.40;;;;;;;;;;107906;283;27400;-32
2023/04/21 10:01:29;;;;;;;5.30;3.30;;;;;;;;;;107830;286;35109;-32
2023/04/21 10:04:03;;;;;;;4.60;3.10;;;;;;;;;;107852;285;28867;-32
2023/04/21 10:06:37;;;;;;;4.70;2.90;;;;;;;;;;107196;285;895525;-32
2023/04/21 10:09:14;;;;;;;5.20;3.10;;;;;;;;;;107877;283;27569;-32
2023/04/21 10:11:49;;;;;;;5.40;3.10;;;;;;;;;;107810;285;34019;-32
2023/04/21 10:14:24;;;;;;;4.80;3.10;;;;;;;;;;107876;286;28799;-32
2023/04/21 10:17:08;;;;;;;4.80;3.00;;;;;;;;;;107927;283;27839;-32
2023/04/21 10:19:55;;;;;;;5.10;2.90;;;;;;;;;;107878;285;27309;-32
2023/04/21 10:22:37;;;;;;;4.80;2.90;;;;;;;;;;107849;283;35901;-31
2023/04/21 10:25:13;;;;;;;5.90;3.10;;;;;;;;;;107810;285;28811;-32
2023/04/21 10:27:48;;;;;;;5.20;3.00;;;;;;;;;;107791;285;181208;-32
2023/04/21 10:30:27;;;;;;;5.80;3.30;;;;;;;;;;107837;283;27365;-32
2023/04/21 10:33:07;;;;;;;4.90;3.00;;;;;;;;;;107926;284;28331;-32
2023/04/21 10:36:04;;;;;;;4.40;2.70;;;;;;;;;;107900;282;28853;-32
2023/04/21 10:38:42;;;;;;;4.60;2.90;;;;;;;;;;107735;285;28970;-32
2023/04/21 10:41:35;;;;;;;4.80;3.00;;;;;;;;;;107874;282;27640;-32
2023/04/21 10:44:15;;;;;;;5.20;3.20;;;;;;;;;;107900;285;28324;-32
2023/04/21 10:46:53;;;;;;;4.90;2.60;;;;;;;;;;107959;285;28840;-32
2023/04/21 10:49:34;;;;;;;4.50;2.60;;;;;;;;;;107912;282;28095;-32
2023/04/21 10:52:11;;;;;;;7.70;2.70;;;;;;;;;;107858;285;27358;-32
2023/04/21 10:55:06;;;;;;;4.50;2.60;;;;;;;;;;107899;283;28437;-32
2023/04/21 10:57:44;;;;;;;4.90;2.80;;;;;;;;;;107899;285;29973;-32
2023/04/21 11:00:24;;;;;;;5.00;2.60;;;;;;;;;;107922;285;28038;-31
2023/04/21 11:03:02;;;;;;;5.30;2.80;;;;;;;;;;107887;283;27423;-32
2023/04/21 11:05:44;;;;;;;4.10;2.40;;;;;;;;;;107899;285;29468;-31
2023/04/21 11:08:19;;;;;;;4.50;2.50;;;;;;;;;;107907;285;29962;-31
2023/04/21 11:10:57;;;;;;;5.20;2.70;;;;;;;;;;107926;285;28184;-31
2023/04/21 11:13:32;;;;;;;4.40;2.60;;;;;;;;;;107999;285;33170;-31
2023/04/21 11:16:11;;;;;;;4.10;2.40;;;;;;;;;;107886;282;28308;-31
2023/04/21 11:18:47;;;;;;;4.60;2.40;;;;;;;;;;107938;285;28853;-31
2023/04/21 11:21:23;;;;;;;4.30;2.40;;;;;;;;;;107879;285;28541;-32
2023/04/21 11:23:59;;;;;;;4.30;2.60;;;;;;;;;;107904;285;33776;-32
2023/04/21 11:27:11;;;;;;;4.70;2.50;;;;;;;;;;107911;282;28891;-32
2023/04/21 11:30:02;;;;;;;4.80;2.60;;;;;;;;;;107994;285;28499;-32
2023/04/21 11:32:40;;;;;;;4.60;2.30;;;;;;;;;;107872;285;28087;-32
2023/04/21 11:35:13;;;;;;;4.30;2.50;;;;;;;;;;107851;285;27342;-32
2023/04/21 11:37:48;;;;;;;4.20;2.30;;;;;;;;;;107871;285;28042;-32
2023/04/21 11:40:22;;;;;;;4.70;2.20;;;;;;;;;;107765;285;175538;-32
2023/04/21 11:42:56;;;;;;;4.00;2.20;;;;;;;;;;107880;285;28567;-32
2023/04/21 11:45:35;;;;;;;4.30;2.30;;;;;;;;;;107865;286;27441;-31
2023/04/21 11:48:19;;;;;;;4.40;2.30;;;;;;;;;;107855;285;28335;-31
2023/04/21 11:50:56;;;;;;;4.70;2.40;;;;;;;;;;107787;287;29517;-31
2023/04/21 11:53:32;;;;;;;5.50;2.20;;;;;;;;;;107823;284;27768;-31
2023/04/21 11:56:09;;;;;;;4.10;2.10;;;;;;;;;;107833;283;27354;-31
2023/04/21 11:58:46;;;;;;;4.10;2.20;;;;;;;;;;107823;286;28239;-31
2023/04/21 12:01:21;;;;;;;4.20;2.30;;;;;;;;;;107861;283;28876;-31
2023/04/21 12:03:58;;;;;;;4.30;2.30;;;;;;;;;;107794;283;28079;-31
2023/04/21 12:06:32;;;;;;;4.10;2.30;;;;;;;;;;107851;286;27413;-31
2023/04/21 12:09:08;;;;;;;4.00;2.30;;;;;;;;;;107910;285;28049;-32
2023/04/21 12:11:50;;;;;;;4.30;2.30;;;;;;;;;;107967;283;28899;-32
2023/04/21 12:14:25;;;;;;;3.90;2.30;;;;;;;;;;107862;283;28084;-32
2023/04/21 12:17:01;;;;;;;4.20;2.40;;;;;;;;;;107904;283;27426;-33
2023/04/21 12:19:42;;;;;;;5.00;2.30;;;;;;;;;;107941;286;28342;-32
2023/04/21 12:22:18;;;;;;;4.70;2.20;;;;;;;;;;107891;283;28955;-32
2023/04/21 12:24:53;;;;;;;4.00;2.40;;;;;;;;;;107824;286;28090;-32
2023/04/21 12:27:28;;;;;;;3.70;2.10;;;;;;;;;;107889;286;27086;-32
2023/04/21 12:30:05;;;;;;;3.80;2.10;;;;;;;;;;107899;283;28276;-32
2023/04/21 12:32:38;;;;;;;4.00;2.10;;;;;;;;;;107897;285;28821;-32
2023/04/21 12:35:13;;;;;;;4.30;2.20;;;;;;;;;;107874;283;33165;-32
2023/04/21 12:37:47;;;;;;;3.80;2.10;;;;;;;;;;107891;286;27381;-32
2023/04/21 12:40:21;;;;;;;4.20;2.30;;;;;;;;;;107817;285;29592;-32
2023/04/21 12:42:58;;;;;;;3.90;2.10;;;;;;;;;;107858;283;28828;-32
2023/04/21 12:45:34;;;;;;;4.00;2.00;;;;;;;;;;107845;283;34879;-32
2023/04/21 12:48:08;;;;;;;3.60;1.90;;;;;;;;;;107871;285;27465;-32
2023/04/21 12:50:47;;;;;;;4.00;2.00;;;;;;;;;;107894;283;28197;-32
2023/04/21 12:53:26;;;;;;;4.10;2.20;;;;;;;;;;107881;283;28787;-32
2023/04/21 12:56:03;;;;;;;4.00;2.00;;;;;;;;;;107818;285;34475;-31
2023/04/21 12:58:38;;;;;;;4.50;2.10;;;;;;;;;;107231;285;891832;-31
2023/04/21 13:01:14;;;;;;;4.30;2.00;;;;;;;;;;107852;283;29597;-32
2023/04/21 13:03:49;;;;;;;4.40;2.10;;;;;;;;;;107791;285;28833;-31
2023/04/21 13:06:23;;;;;;;4.60;2.00;;;;;;;;;;107831;283;35388;-31
2023/04/21 13:08:57;;;;;;;4.80;2.20;;;;;;;;;;107807;285;27347;-31
2023/04/21 13:11:33;;;;;;;4.00;1.80;;;;;;;;;;107829;286;28300;-31
2023/04/21 13:14:07;;;;;;;3.90;2.00;;;;;;;;;;107801;285;28731;-31
2023/04/21 13:16:43;;;;;;;3.40;2.00;;;;;;;;;;107780;283;35386;-31
2023/04/21 13:19:19;;;;;;;4.50;2.00;;;;;;;;;;107796;285;27528;-31
2023/04/21 13:21:53;;;;;;;3.80;1.90;;;;;;;;;;107809;286;28174;-31
2023/04/21 13:24:27;;;;;;;3.60;1.90;;;;;;;;;;107790;283;28621;-31
2023/04/21 13:27:04;;;;;;;3.60;1.80;;;;;;;;;;107827;287;34412;-31
2023/04/21 13:29:38;;;;;;;3.50;1.70;;;;;;;;;;107840;287;27367;-31
2023/04/21 13:32:15;;;;;;;3.90;1.80;;;;;;;;;;107734;286;175547;-31
2023/04/21 13:34:49;;;;;;;3.90;2.00;;;;;;;;;;107837;285;28897;-31
2023/04/21 13:37:26;;;;;;;3.80;2.00;;;;;;;;;;107939;283;28797;-31
2023/04/21 13:40:01;;;;;;;4.50;1.90;;;;;;;;;;107948;285;27715;-32
2023/04/21 13:42:36;;;;;;;3.10;1.70;;;;;;;;;;107855;279;29471;-32
2023/04/21 13:45:13;;;;;;;3.70;2.00;;;;;;;;;;107912;283;28823;-32
2023/04/21 13:47:47;;;;;;;3.50;1.80;;;;;;;;;;107994;285;28039;-32
2023/04/21 13:50:24;;;;;;;3.50;1.80;;;;;;;;;;107906;285;27569;-31
2023/04/21 13:53:00;;;;;;;3.70;1.70;;;;;;;;;;107928;285;28634;-31
2023/04/21 13:55:34;;;;;;;3.80;1.80;;;;;;;;;;107863;285;28995;-31
2023/04/21 13:58:09;;;;;;;3.40;1.80;;;;;;;;;;107958;283;28099;-32
2023/04/21 14:00:45;;;;;;;3.50;1.90;;;;;;;;;;107912;285;27373;-31
2023/04/21 14:03:23;;;;;;;4.00;1.90;;;;;;;;;;107940;285;28301;-31
2023/04/21 14:06:00;;;;;;;3.40;1.80;;;;;;;;;;107857;285;29971;-31
2023/04/21 14:08:35;;;;;;;3.80;1.80;;;;;;;;;;107712;285;28085;-31
2023/04/21 14:11:11;;;;;;;3.60;1.70;;;;;;;;;;107962;283;27357;-32
2023/04/21 14:13:45;;;;;;;3.70;1.80;;;;;;;;;;107977;285;28282;-32
2023/04/21 14:16:41;;;;;;;3.70;1.90;;;;;;;;;;107860;285;28814;-32
2023/04/21 14:19:15;;;;;;;3.50;1.80;;;;;;;;;;107934;283;28083;-32
2023/04/21 14:21:49;;;;;;;3.50;1.70;;;;;;;;;;107934;285;27361;-31
2023/04/21 14:24:28;;;;;;;3.40;1.80;;;;;;;;;;107932;285;27992;-31
2023/04/21 14:27:02;;;;;;;3.70;1.80;;;;;;;;;;107812;285;175162;-32
2023/04/21 14:29:36;;;;;;;4.10;1.80;;;;;;;;;;107948;282;28117;-32
2023/04/21 14:32:12;;;;;;;3.70;1.80;;;;;;;;;;107950;285;27393;-32
2023/04/21 14:34:52;;;;;;;3.80;1.80;;;;;;;;;;107858;285;28050;-31
2023/04/21 14:37:26;;;;;;;3.70;1.80;;;;;;;;;;107717;277;28371;-31
2023/04/21 14:40:00;;;;;;;3.80;1.70;;;;;;;;;;108078;285;27994;-31
2023/04/21 14:42:34;;;;;;;3.70;1.90;;;;;;;;;;107870;285;27774;-30
2023/04/21 14:45:12;;;;;;;3.60;1.90;;;;;;;;;;107917;277;29280;-30
2023/04/21 14:47:49;;;;;;;4.00;1.90;;;;;;;;;;107905;283;28765;-30
2023/04/21 14:50:24;;;;;;;3.70;1.80;;;;;;;;;;107917;285;27996;-30
2023/04/21 14:52:59;;;;;;;3.50;1.90;;;;;;;;;;107797;285;175537;-30
2023/04/21 14:55:40;;;;;;;3.60;1.80;;;;;;;;;;107818;282;29298;-30
2023/04/21 14:58:14;;;;;;;3.40;1.70;;;;;;;;;;107746;285;174478;-30
2023/04/21 15:00:49;;;;;;;3.80;2.00;;;;;;;;;;107907;285;29082;-30
2023/04/21 15:03:22;;;;;;;3.90;2.00;;;;;;;;;;107928;285;27204;-30
2023/04/21 15:05:56;;;;;;;3.40;1.80;;;;;;;;;;107892;285;28094;-30
2023/04/21 15:08:31;;;;;;;3.30;1.70;;;;;;;;;;107879;285;28752;-30
2023/04/21 15:11:05;;;;;;;3.40;1.90;;;;;;;;;;107787;285;175533;-30
2023/04/21 15:13:39;;;;;;;3.50;1.80;;;;;;;;;;107868;285;27203;-30
2023/04/21 15:16:14;;;;;;;3.90;1.90;;;;;;;;;;107912;285;28398;-30
2023/04/21 15:18:47;;;;;;;3.70;1.80;;;;;;;;;;107885;282;28616;-30
2023/04/21 15:21:21;;;;;;;3.20;1.70;;;;;;;;;;107916;285;27963;-30
2023/04/21 15:23:55;;;;;;;3.60;1.80;;;;;;;;;;107941;283;27174;-30
2023/04/21 15:26:29;;;;;;;3.80;1.80;;;;;;;;;;107901;285;28220;-30
2023/04/21 15:29:03;;;;;;;3.70;1.90;;;;;;;;;;107895;285;28654;-30
2023/04/21 15:31:39;;;;;;;3.90;1.90;;;;;;;;;;107894;285;27873;-30
2023/04/21 15:34:14;;;;;;;4.20;1.90;;;;;;;;;;107789;285;175510;-30
2023/04/21 15:36:49;;;;;;;3.30;1.70;;;;;;;;;;107909;285;28092;-30
2023/04/21 15:39:23;;;;;;;3.30;1.80;;;;;;;;;;107853;285;28659;-30